sensor_id;sensor_type;location;lat;lon;timestamp;P1;durP1;ratioP1;P2;durP2;ratioP2
68987;SDS011;56038;46.080;11.116;2023-04-24T00:04:43;3.70;;;3.28;;
68987;SDS011;56038;46.080;11.116;2023-04-24T00:09:45;4.65;;;3.50;;
68987;SDS011;56038;46.080;11.116;2023-04-24T00:14:48;5.57;;;4.47;;
68987;SDS011;56038;46.080;11.116;2023-04-24T00:19:50;6.47;;;5.68;;
68987;SDS011;56038;46.080;11.116;2023-04-24T00:24:58;6.93;;;4.93;;
68987;SDS011;56038;46.080;11.116;2023-04-24T00:30:01;6.43;;;5.57;;
68987;SDS011;56038;46.080;11.116;2023-04-24T00:35:03;5.95;;;5.10;;
68987;SDS011;56038;46.080;11.116;2023-04-24T00:40:06;6.10;;;5.15;;
68987;SDS011;56038;46.080;11.116;2023-04-24T00:45:10;8.02;;;5.10;;
68987;SDS011;56038;46.080;11.116;2023-04-24T00:50:14;6.50;;;5.25;;
68987;SDS011;56038;46.080;11.116;2023-04-24T00:55:16;6.20;;;5.32;;
68987;SDS011;56038;46.080;11.116;2023-04-24T01:00:19;7.00;;;5.78;;
68987;SDS011;56038;46.080;11.116;2023-04-24T01:05:23;9.45;;;6.45;;
68987;SDS011;56038;46.080;11.116;2023-04-24T01:10:32;7.43;;;5.55;;
68987;SDS011;56038;46.080;11.116;2023-04-24T01:15:35;6.72;;;5.20;;
68987;SDS011;56038;46.080;11.116;2023-04-24T01:20:37;8.50;;;6.07;;
68987;SDS011;56038;46.080;11.116;2023-04-24T01:25:42;7.30;;;6.03;;
68987;SDS011;56038;46.080;11.116;2023-04-24T01:30:44;6.47;;;5.30;;
68987;SDS011;56038;46.080;11.116;2023-04-24T01:35:46;6.25;;;5.05;;
68987;SDS011;56038;46.080;11.116;2023-04-24T01:40:49;8.10;;;5.32;;
68987;SDS011;56038;46.080;11.116;2023-04-24T01:45:52;6.07;;;5.45;;
68987;SDS011;56038;46.080;11.116;2023-04-24T01:50:53;7.47;;;6.07;;
68987;SDS011;56038;46.080;11.116;2023-04-24T01:55:57;10.45;;;7.15;;
68987;SDS011;56038;46.080;11.116;2023-04-24T02:00:59;6.90;;;5.80;;
68987;SDS011;56038;46.080;11.116;2023-04-24T02:06:01;6.50;;;5.20;;
68987;SDS011;56038;46.080;11.116;2023-04-24T02:11:04;5.38;;;4.88;;
68987;SDS011;56038;46.080;11.116;2023-04-24T02:16:05;7.03;;;5.32;;
68987;SDS011;56038;46.080;11.116;2023-04-24T02:21:07;7.90;;;5.55;;
68987;SDS011;56038;46.080;11.116;2023-04-24T02:26:10;6.72;;;5.38;;
68987;SDS011;56038;46.080;11.116;2023-04-24T02:31:12;6.25;;;4.82;;
68987;SDS011;56038;46.080;11.116;2023-04-24T02:36:14;4.60;;;4.20;;
68987;SDS011;56038;46.080;11.116;2023-04-24T02:41:17;4.22;;;3.42;;
68987;SDS011;56038;46.080;11.116;2023-04-24T02:46:19;6.82;;;4.30;;
68987;SDS011;56038;46.080;11.116;2023-04-24T02:51:21;5.38;;;4.88;;
68987;SDS011;56038;46.080;11.116;2023-04-24T02:56:24;5.97;;;4.32;;
68987;SDS011;56038;46.080;11.116;2023-04-24T03:01:25;3.85;;;3.45;;
68987;SDS011;56038;46.080;11.116;2023-04-24T03:06:27;7.22;;;5.63;;
68987;SDS011;56038;46.080;11.116;2023-04-24T03:11:30;6.45;;;5.03;;
68987;SDS011;56038;46.080;11.116;2023-04-24T03:16:32;9.50;;;8.10;;
68987;SDS011;56038;46.080;11.116;2023-04-24T03:21:34;9.07;;;7.18;;
68987;SDS011;56038;46.080;11.116;2023-04-24T03:26:41;6.75;;;6.05;;
68987;SDS011;56038;46.080;11.116;2023-04-24T03:31:43;7.10;;;6.38;;
68987;SDS011;56038;46.080;11.116;2023-04-24T03:36:45;7.30;;;5.80;;
68987;SDS011;56038;46.080;11.116;2023-04-24T03:41:48;6.43;;;5.57;;
68987;SDS011;56038;46.080;11.116;2023-04-24T03:46:50;10.00;;;7.38;;
68987;SDS011;56038;46.080;11.116;2023-04-24T03:51:52;8.65;;;6.38;;
68987;SDS011;56038;46.080;11.116;2023-04-24T03:56:55;9.27;;;6.70;;
68987;SDS011;56038;46.080;11.116;2023-04-24T04:01:56;6.40;;;5.25;;
68987;SDS011;56038;46.080;11.116;2023-04-24T04:06:58;7.22;;;5.22;;
68987;SDS011;56038;46.080;11.116;2023-04-24T04:12:02;8.35;;;5.22;;
68987;SDS011;56038;46.080;11.116;2023-04-24T04:17:04;6.18;;;5.07;;
68987;SDS011;56038;46.080;11.116;2023-04-24T04:22:05;5.68;;;5.07;;
68987;SDS011;56038;46.080;11.116;2023-04-24T04:27:09;5.80;;;5.13;;
68987;SDS011;56038;46.080;11.116;2023-04-24T04:32:11;6.15;;;4.88;;
68987;SDS011;56038;46.080;11.116;2023-04-24T04:37:12;5.93;;;4.22;;
68987;SDS011;56038;46.080;11.116;2023-04-24T04:42:15;5.75;;;5.15;;
68987;SDS011;56038;46.080;11.116;2023-04-24T04:47:19;6.35;;;5.10;;
68987;SDS011;56038;46.080;11.116;2023-04-24T04:52:22;7.15;;;5.90;;
68987;SDS011;56038;46.080;11.116;2023-04-24T04:57:28;5.93;;;3.53;;
68987;SDS011;56038;46.080;11.116;2023-04-24T05:02:30;0.55;;;0.40;;
68987;SDS011;56038;46.080;11.116;2023-04-24T05:07:31;0.30;;;0.30;;
68987;SDS011;56038;46.080;11.116;2023-04-24T05:12:35;0.35;;;0.35;;
68987;SDS011;56038;46.080;11.116;2023-04-24T05:17:36;0.65;;;0.30;;
68987;SDS011;56038;46.080;11.116;2023-04-24T05:22:39;1.73;;;0.30;;
68987;SDS011;56038;46.080;11.116;2023-04-24T05:27:43;1.10;;;0.40;;
68987;SDS011;56038;46.080;11.116;2023-04-24T05:32:45;0.43;;;0.30;;
68987;SDS011;56038;46.080;11.116;2023-04-24T05:37:47;0.70;;;0.20;;
68987;SDS011;56038;46.080;11.116;2023-04-24T05:42:50;1.52;;;0.30;;
68987;SDS011;56038;46.080;11.116;2023-04-24T05:47:52;0.10;;;0.10;;
68987;SDS011;56038;46.080;11.116;2023-04-24T05:52:53;1.15;;;0.30;;
68987;SDS011;56038;46.080;11.116;2023-04-24T05:57:58;0.98;;;0.20;;
68987;SDS011;56038;46.080;11.116;2023-04-24T06:03:00;0.63;;;0.30;;
68987;SDS011;56038;46.080;11.116;2023-04-24T06:08:03;3.33;;;1.13;;
68987;SDS011;56038;46.080;11.116;2023-04-24T06:13:06;1.88;;;0.52;;
68987;SDS011;56038;46.080;11.116;2023-04-24T06:18:08;1.58;;;0.40;;
68987;SDS011;56038;46.080;11.116;2023-04-24T06:23:10;0.40;;;0.30;;
68987;SDS011;56038;46.080;11.116;2023-04-24T06:28:13;0.77;;;0.50;;
68987;SDS011;56038;46.080;11.116;2023-04-24T06:33:15;0.70;;;0.22;;
68987;SDS011;56038;46.080;11.116;2023-04-24T06:38:17;0.63;;;0.38;;
68987;SDS011;56038;46.080;11.116;2023-04-24T06:43:20;1.17;;;0.50;;
68987;SDS011;56038;46.080;11.116;2023-04-24T06:48:22;0.85;;;0.40;;
68987;SDS011;56038;46.080;11.116;2023-04-24T06:53:23;1.50;;;0.50;;
68987;SDS011;56038;46.080;11.116;2023-04-24T06:58:27;6.63;;;2.78;;
68987;SDS011;56038;46.080;11.116;2023-04-24T07:03:28;1.90;;;1.33;;
68987;SDS011;56038;46.080;11.116;2023-04-24T07:08:30;0.90;;;0.70;;
68987;SDS011;56038;46.080;11.116;2023-04-24T07:13:34;0.70;;;0.55;;
68987;SDS011;56038;46.080;11.116;2023-04-24T07:23:46;0.75;;;0.20;;
68987;SDS011;56038;46.080;11.116;2023-04-24T07:28:49;0.32;;;0.20;;
68987;SDS011;56038;46.080;11.116;2023-04-24T07:39:01;0.40;;;0.40;;
68987;SDS011;56038;46.080;11.116;2023-04-24T07:44:04;0.52;;;0.52;;
68987;SDS011;56038;46.080;11.116;2023-04-24T07:49:06;0.43;;;0.30;;
68987;SDS011;56038;46.080;11.116;2023-04-24T07:54:08;0.30;;;0.30;;
68987;SDS011;56038;46.080;11.116;2023-04-24T07:59:11;0.30;;;0.30;;
68987;SDS011;56038;46.080;11.116;2023-04-24T08:09:22;0.40;;;0.40;;
68987;SDS011;56038;46.080;11.116;2023-04-24T08:14:26;1.10;;;0.80;;
68987;SDS011;56038;46.080;11.116;2023-04-24T08:19:27;0.20;;;0.20;;
68987;SDS011;56038;46.080;11.116;2023-04-24T08:24:29;0.38;;;0.38;;
68987;SDS011;56038;46.080;11.116;2023-04-24T08:29:32;0.20;;;0.20;;
68987;SDS011;56038;46.080;11.116;2023-04-24T08:34:34;0.20;;;0.20;;
68987;SDS011;56038;46.080;11.116;2023-04-24T08:39:36;0.20;;;0.20;;
68987;SDS011;56038;46.080;11.116;2023-04-24T08:44:39;0.30;;;0.20;;
68987;SDS011;56038;46.080;11.116;2023-04-24T08:49:41;0.25;;;0.20;;
68987;SDS011;56038;46.080;11.116;2023-04-24T08:54:45;0.45;;;0.35;;
68987;SDS011;56038;46.080;11.116;2023-04-24T08:59:49;0.40;;;0.20;;
68987;SDS011;56038;46.080;11.116;2023-04-24T09:04:52;0.25;;;0.20;;
68987;SDS011;56038;46.080;11.116;2023-04-24T09:09:54;0.45;;;0.38;;
68987;SDS011;56038;46.080;11.116;2023-04-24T09:14:58;0.32;;;0.32;;
68987;SDS011;56038;46.080;11.116;2023-04-24T09:20:01;0.40;;;0.40;;
68987;SDS011;56038;46.080;11.116;2023-04-24T09:25:04;0.25;;;0.10;;
68987;SDS011;56038;46.080;11.116;2023-04-24T09:30:11;0.22;;;0.22;;
68987;SDS011;56038;46.080;11.116;2023-04-24T09:35:13;0.35;;;0.30;;
68987;SDS011;56038;46.080;11.116;2023-04-24T09:40:17;0.32;;;0.32;;
68987;SDS011;56038;46.080;11.116;2023-04-24T09:45:22;0.47;;;0.30;;
68987;SDS011;56038;46.080;11.116;2023-04-24T09:50:32;0.30;;;0.20;;
68987;SDS011;56038;46.080;11.116;2023-04-24T09:55:35;1.58;;;0.57;;
68987;SDS011;56038;46.080;11.116;2023-04-24T10:00:45;0.43;;;0.17;;
68987;SDS011;56038;46.080;11.116;2023-04-24T10:05:57;0.28;;;0.28;;
68987;SDS011;56038;46.080;11.116;2023-04-24T10:11:09;0.22;;;0.20;;
68987;SDS011;56038;46.080;11.116;2023-04-24T10:16:13;0.20;;;0.20;;
68987;SDS011;56038;46.080;11.116;2023-04-24T10:21:16;0.20;;;0.20;;
68987;SDS011;56038;46.080;11.116;2023-04-24T10:26:18;3.05;;;1.13;;
68987;SDS011;56038;46.080;11.116;2023-04-24T10:31:22;0.38;;;0.35;;
68987;SDS011;56038;46.080;11.116;2023-04-24T10:36:24;0.45;;;0.40;;
68987;SDS011;56038;46.080;11.116;2023-04-24T10:41:27;0.20;;;0.20;;
68987;SDS011;56038;46.080;11.116;2023-04-24T10:46:33;0.30;;;0.20;;
68987;SDS011;56038;46.080;11.116;2023-04-24T10:51:47;0.30;;;0.30;;
68987;SDS011;56038;46.080;11.116;2023-04-24T10:56:50;1.30;;;0.40;;
68987;SDS011;56038;46.080;11.116;2023-04-24T11:01:54;0.20;;;0.20;;
68987;SDS011;56038;46.080;11.116;2023-04-24T11:06:56;0.20;;;0.20;;
68987;SDS011;56038;46.080;11.116;2023-04-24T11:12:04;1.27;;;0.30;;
68987;SDS011;56038;46.080;11.116;2023-04-24T11:17:26;0.20;;;0.20;;
68987;SDS011;56038;46.080;11.116;2023-04-24T11:22:30;0.20;;;0.20;;
68987;SDS011;56038;46.080;11.116;2023-04-24T11:27:38;0.20;;;0.20;;
68987;SDS011;56038;46.080;11.116;2023-04-24T11:44:15;0.10;;;0.10;;
68987;SDS011;56038;46.080;11.116;2023-04-24T11:49:22;0.20;;;0.20;;
68987;SDS011;56038;46.080;11.116;2023-04-24T11:54:27;0.20;;;0.20;;
68987;SDS011;56038;46.080;11.116;2023-04-24T11:59:29;0.47;;;0.40;;
68987;SDS011;56038;46.080;11.116;2023-04-24T12:04:37;0.88;;;0.30;;
68987;SDS011;56038;46.080;11.116;2023-04-24T12:09:42;0.20;;;0.20;;
68987;SDS011;56038;46.080;11.116;2023-04-24T12:14:48;0.88;;;0.30;;
68987;SDS011;56038;46.080;11.116;2023-04-24T12:19:51;0.28;;;0.28;;
68987;SDS011;56038;46.080;11.116;2023-04-24T12:24:59;0.70;;;0.40;;
68987;SDS011;56038;46.080;11.116;2023-04-24T12:30:03;2.20;;;0.40;;
68987;SDS011;56038;46.080;11.116;2023-04-24T12:35:06;0.15;;;0.15;;
68987;SDS011;56038;46.080;11.116;2023-04-24T12:40:10;0.20;;;0.20;;
68987;SDS011;56038;46.080;11.116;2023-04-24T12:45:13;1.05;;;0.30;;
68987;SDS011;56038;46.080;11.116;2023-04-24T12:50:16;0.82;;;0.30;;
68987;SDS011;56038;46.080;11.116;2023-04-24T12:55:20;0.10;;;0.10;;
68987;SDS011;56038;46.080;11.116;2023-04-24T13:00:25;0.10;;;0.10;;
68987;SDS011;56038;46.080;11.116;2023-04-24T13:10:45;0.20;;;0.20;;
68987;SDS011;56038;46.080;11.116;2023-04-24T13:15:47;0.40;;;0.40;;
68987;SDS011;56038;46.080;11.116;2023-04-24T13:20:49;0.20;;;0.15;;
68987;SDS011;56038;46.080;11.116;2023-04-24T13:25:55;0.30;;;0.30;;
68987;SDS011;56038;46.080;11.116;2023-04-24T13:30:58;0.15;;;0.15;;
68987;SDS011;56038;46.080;11.116;2023-04-24T13:36:00;0.47;;;0.30;;
68987;SDS011;56038;46.080;11.116;2023-04-24T13:41:05;0.28;;;0.28;;
68987;SDS011;56038;46.080;11.116;2023-04-24T13:46:07;0.47;;;0.25;;
68987;SDS011;56038;46.080;11.116;2023-04-24T13:51:09;0.30;;;0.30;;
68987;SDS011;56038;46.080;11.116;2023-04-24T13:56:12;0.30;;;0.10;;
68987;SDS011;56038;46.080;11.116;2023-04-24T14:01:17;0.52;;;0.20;;
68987;SDS011;56038;46.080;11.116;2023-04-24T14:06:19;0.40;;;0.40;;
68987;SDS011;56038;46.080;11.116;2023-04-24T14:11:24;0.28;;;0.15;;
68987;SDS011;56038;46.080;11.116;2023-04-24T14:16:28;0.20;;;0.20;;
68987;SDS011;56038;46.080;11.116;2023-04-24T14:21:30;0.50;;;0.50;;
68987;SDS011;56038;46.080;11.116;2023-04-24T14:26:33;0.20;;;0.20;;
68987;SDS011;56038;46.080;11.116;2023-04-24T14:31:35;0.10;;;0.10;;
68987;SDS011;56038;46.080;11.116;2023-04-24T14:36:37;1.30;;;0.40;;
68987;SDS011;56038;46.080;11.116;2023-04-24T14:41:40;0.82;;;0.30;;
68987;SDS011;56038;46.080;11.116;2023-04-24T14:46:41;0.50;;;0.35;;
68987;SDS011;56038;46.080;11.116;2023-04-24T14:51:43;0.70;;;0.43;;
68987;SDS011;56038;46.080;11.116;2023-04-24T14:56:46;0.40;;;0.40;;
68987;SDS011;56038;46.080;11.116;2023-04-24T15:01:48;0.30;;;0.30;;
68987;SDS011;56038;46.080;11.116;2023-04-24T15:06:51;0.35;;;0.30;;
68987;SDS011;56038;46.080;11.116;2023-04-24T15:11:55;0.30;;;0.25;;
68987;SDS011;56038;46.080;11.116;2023-04-24T15:16:57;0.10;;;0.10;;
68987;SDS011;56038;46.080;11.116;2023-04-24T15:21:59;0.93;;;0.80;;
68987;SDS011;56038;46.080;11.116;2023-04-24T15:27:02;2.00;;;0.52;;
68987;SDS011;56038;46.080;11.116;2023-04-24T15:32:04;0.20;;;0.20;;
68987;SDS011;56038;46.080;11.116;2023-04-24T15:37:06;0.35;;;0.17;;
68987;SDS011;56038;46.080;11.116;2023-04-24T15:42:09;0.40;;;0.30;;
68987;SDS011;56038;46.080;11.116;2023-04-24T15:47:10;0.20;;;0.20;;
68987;SDS011;56038;46.080;11.116;2023-04-24T15:52:14;0.15;;;0.15;;
68987;SDS011;56038;46.080;11.116;2023-04-24T15:57:17;0.52;;;0.20;;
68987;SDS011;56038;46.080;11.116;2023-04-24T16:02:18;0.20;;;0.20;;
68987;SDS011;56038;46.080;11.116;2023-04-24T16:07:20;0.30;;;0.20;;
68987;SDS011;56038;46.080;11.116;2023-04-24T16:12:23;1.80;;;0.40;;
68987;SDS011;56038;46.080;11.116;2023-04-24T16:17:26;0.60;;;0.30;;
68987;SDS011;56038;46.080;11.116;2023-04-24T16:22:28;0.40;;;0.40;;
68987;SDS011;56038;46.080;11.116;2023-04-24T16:27:31;0.90;;;0.40;;
68987;SDS011;56038;46.080;11.116;2023-04-24T16:32:33;0.25;;;0.20;;
68987;SDS011;56038;46.080;11.116;2023-04-24T16:37:34;0.32;;;0.30;;
68987;SDS011;56038;46.080;11.116;2023-04-24T16:42:37;0.90;;;0.70;;
68987;SDS011;56038;46.080;11.116;2023-04-24T16:47:39;0.65;;;0.43;;
68987;SDS011;56038;46.080;11.116;2023-04-24T16:52:41;0.70;;;0.43;;
68987;SDS011;56038;46.080;11.116;2023-04-24T16:57:44;1.80;;;0.40;;
68987;SDS011;56038;46.080;11.116;2023-04-24T17:02:47;0.73;;;0.65;;
68987;SDS011;56038;46.080;11.116;2023-04-24T17:07:49;0.30;;;0.30;;
68987;SDS011;56038;46.080;11.116;2023-04-24T17:12:52;0.50;;;0.50;;
68987;SDS011;56038;46.080;11.116;2023-04-24T17:17:54;0.77;;;0.32;;
68987;SDS011;56038;46.080;11.116;2023-04-24T17:22:56;0.43;;;0.40;;
68987;SDS011;56038;46.080;11.116;2023-04-24T17:28:00;0.77;;;0.77;;
68987;SDS011;56038;46.080;11.116;2023-04-24T17:33:02;0.73;;;0.70;;
68987;SDS011;56038;46.080;11.116;2023-04-24T17:38:04;0.65;;;0.65;;
68987;SDS011;56038;46.080;11.116;2023-04-24T17:43:07;0.98;;;0.50;;
68987;SDS011;56038;46.080;11.116;2023-04-24T17:48:09;0.68;;;0.68;;
68987;SDS011;56038;46.080;11.116;2023-04-24T17:53:11;1.55;;;1.10;;
68987;SDS011;56038;46.080;11.116;2023-04-24T17:58:16;1.08;;;0.98;;
68987;SDS011;56038;46.080;11.116;2023-04-24T18:03:19;1.88;;;0.95;;
68987;SDS011;56038;46.080;11.116;2023-04-24T18:08:21;1.20;;;1.10;;
68987;SDS011;56038;46.080;11.116;2023-04-24T18:13:24;1.15;;;1.05;;
68987;SDS011;56038;46.080;11.116;2023-04-24T18:18:26;1.23;;;0.90;;
68987;SDS011;56038;46.080;11.116;2023-04-24T18:23:27;1.20;;;1.10;;
68987;SDS011;56038;46.080;11.116;2023-04-24T18:28:31;1.83;;;1.20;;
68987;SDS011;56038;46.080;11.116;2023-04-24T18:33:33;1.98;;;0.90;;
68987;SDS011;56038;46.080;11.116;2023-04-24T18:38:35;1.75;;;0.90;;
68987;SDS011;56038;46.080;11.116;2023-04-24T18:43:38;2.80;;;1.42;;
68987;SDS011;56038;46.080;11.116;2023-04-24T18:48:40;2.17;;;1.67;;
68987;SDS011;56038;46.080;11.116;2023-04-24T18:53:41;1.65;;;1.20;;
68987;SDS011;56038;46.080;11.116;2023-04-24T18:58:45;4.07;;;1.58;;
68987;SDS011;56038;46.080;11.116;2023-04-24T19:03:46;3.35;;;1.13;;
68987;SDS011;56038;46.080;11.116;2023-04-24T19:08:48;1.38;;;1.00;;
68987;SDS011;56038;46.080;11.116;2023-04-24T19:13:51;1.80;;;1.10;;
68987;SDS011;56038;46.080;11.116;2023-04-24T19:18:53;0.90;;;0.90;;
68987;SDS011;56038;46.080;11.116;2023-04-24T19:23:55;1.10;;;1.00;;
68987;SDS011;56038;46.080;11.116;2023-04-24T19:28:58;1.77;;;1.10;;
68987;SDS011;56038;46.080;11.116;2023-04-24T19:34:00;1.27;;;1.00;;
68987;SDS011;56038;46.080;11.116;2023-04-24T19:39:01;1.20;;;0.93;;
68987;SDS011;56038;46.080;11.116;2023-04-24T19:44:07;1.10;;;1.00;;
68987;SDS011;56038;46.080;11.116;2023-04-24T19:49:09;2.92;;;1.67;;
68987;SDS011;56038;46.080;11.116;2023-04-24T19:54:11;1.45;;;1.35;;
68987;SDS011;56038;46.080;11.116;2023-04-24T19:59:15;2.08;;;1.23;;
68987;SDS011;56038;46.080;11.116;2023-04-24T20:04:19;2.30;;;1.45;;
68987;SDS011;56038;46.080;11.116;2023-04-24T20:09:25;2.53;;;1.20;;
68987;SDS011;56038;46.080;11.116;2023-04-24T20:14:30;2.28;;;1.10;;
68987;SDS011;56038;46.080;11.116;2023-04-24T20:19:34;1.88;;;1.23;;
68987;SDS011;56038;46.080;11.116;2023-04-24T20:24:38;1.85;;;1.33;;
68987;SDS011;56038;46.080;11.116;2023-04-24T20:29:41;1.35;;;1.25;;
68987;SDS011;56038;46.080;11.116;2023-04-24T20:34:42;2.45;;;1.40;;
68987;SDS011;56038;46.080;11.116;2023-04-24T20:39:44;1.63;;;1.10;;
68987;SDS011;56038;46.080;11.116;2023-04-24T20:44:48;1.80;;;1.27;;
68987;SDS011;56038;46.080;11.116;2023-04-24T20:49:50;2.50;;;1.00;;
68987;SDS011;56038;46.080;11.116;2023-04-24T20:54:52;1.40;;;0.88;;
68987;SDS011;56038;46.080;11.116;2023-04-24T20:59:55;1.58;;;1.30;;
68987;SDS011;56038;46.080;11.116;2023-04-24T21:05:00;1.13;;;0.88;;
68987;SDS011;56038;46.080;11.116;2023-04-24T21:10:02;1.02;;;1.00;;
68987;SDS011;56038;46.080;11.116;2023-04-24T21:15:06;4.70;;;3.13;;
68987;SDS011;56038;46.080;11.116;2023-04-24T21:20:08;1.13;;;1.02;;
68987;SDS011;56038;46.080;11.116;2023-04-24T21:25:10;0.82;;;0.80;;
68987;SDS011;56038;46.080;11.116;2023-04-24T21:30:14;1.58;;;0.75;;
68987;SDS011;56038;46.080;11.116;2023-04-24T21:35:16;1.27;;;1.00;;
68987;SDS011;56038;46.080;11.116;2023-04-24T21:40:17;0.70;;;0.68;;
68987;SDS011;56038;46.080;11.116;2023-04-24T21:45:21;0.85;;;0.80;;
68987;SDS011;56038;46.080;11.116;2023-04-24T21:50:22;1.45;;;1.05;;
68987;SDS011;56038;46.080;11.116;2023-04-24T21:55:27;1.07;;;0.80;;
68987;SDS011;56038;46.080;11.116;2023-04-24T22:00:30;1.30;;;1.05;;
68987;SDS011;56038;46.080;11.116;2023-04-24T22:05:37;0.70;;;0.70;;
68987;SDS011;56038;46.080;11.116;2023-04-24T22:12:15;0.65;;;0.65;;
68987;SDS011;56038;46.080;11.116;2023-04-24T22:16:53;1.15;;;0.98;;
68987;SDS011;56038;46.080;11.116;2023-04-24T22:21:56;0.60;;;0.60;;
68987;SDS011;56038;46.080;11.116;2023-04-24T22:26:57;0.95;;;0.73;;
68987;SDS011;56038;46.080;11.116;2023-04-24T22:32:00;0.80;;;0.80;;
68987;SDS011;56038;46.080;11.116;2023-04-24T22:37:02;0.85;;;0.70;;
68987;SDS011;56038;46.080;11.116;2023-04-24T22:42:04;1.27;;;0.70;;
68987;SDS011;56038;46.080;11.116;2023-04-24T22:47:07;0.55;;;0.55;;
68987;SDS011;56038;46.080;11.116;2023-04-24T22:52:09;1.08;;;0.98;;
68987;SDS011;56038;46.080;11.116;2023-04-24T22:57:12;1.00;;;0.90;;
68987;SDS011;56038;46.080;11.116;2023-04-24T23:02:16;1.58;;;0.70;;
68987;SDS011;56038;46.080;11.116;2023-04-24T23:07:17;0.60;;;0.50;;
68987;SDS011;56038;46.080;11.116;2023-04-24T23:12:19;0.98;;;0.60;;
68987;SDS011;56038;46.080;11.116;2023-04-24T23:17:22;0.63;;;0.60;;
68987;SDS011;56038;46.080;11.116;2023-04-24T23:33:35;1.88;;;0.95;;
68987;SDS011;56038;46.080;11.116;2023-04-24T23:38:36;0.57;;;0.57;;
68987;SDS011;56038;46.080;11.116;2023-04-24T23:43:38;0.73;;;0.73;;
68987;SDS011;56038;46.080;11.116;2023-04-24T23:48:41;0.80;;;0.80;;
68987;SDS011;56038;46.080;11.116;2023-04-24T23:53:42;1.00;;;0.70;;
68987;SDS011;56038;46.080;11.116;2023-04-24T23:58:44;0.70;;;0.70;;
